sensor_id;sensor_type;location;lat;lon;timestamp;P1;durP1;ratioP1;P2;durP2;ratioP2
51515;SDS011;37603;55.614;37.326;2022-12-10T00:01:04;21.2;;;7.7;;
51515;SDS011;37603;55.614;37.326;2022-12-10T00:07:03;22.7;;;7.8;;
51515;SDS011;37603;55.614;37.326;2022-12-10T00:13:01;23.5;;;8.2;;
51515;SDS011;37603;55.614;37.326;2022-12-10T00:19:00;23.1;;;8.0;;
51515;SDS011;37603;55.614;37.326;2022-12-10T00:24:58;26.2;;;8.7;;
51515;SDS011;37603;55.614;37.326;2022-12-10T00:31:00;25.8;;;8.1;;
51515;SDS011;37603;55.614;37.326;2022-12-10T00:36:55;20.2;;;8.6;;
51515;SDS011;37603;55.614;37.326;2022-12-10T00:42:54;28.9;;;8.4;;
51515;SDS011;37603;55.614;37.326;2022-12-10T00:48:52;39.9;;;19.9;;
51515;SDS011;37603;55.614;37.326;2022-12-10T00:54:51;27.7;;;8.6;;
51515;SDS011;37603;55.614;37.326;2022-12-10T01:00:49;23.4;;;8.3;;
51515;SDS011;37603;55.614;37.326;2022-12-10T01:06:48;19.3;;;6.9;;
51515;SDS011;37603;55.614;37.326;2022-12-10T01:12:46;22.2;;;7.8;;
51515;SDS011;37603;55.614;37.326;2022-12-10T01:18:45;22.7;;;7.4;;
51515;SDS011;37603;55.614;37.326;2022-12-10T01:24:43;40.9;;;20.3;;
51515;SDS011;37603;55.614;37.326;2022-12-10T01:30:42;24.8;;;7.9;;
51515;SDS011;37603;55.614;37.326;2022-12-10T01:36:41;21.7;;;7.8;;
51515;SDS011;37603;55.614;37.326;2022-12-10T01:42:39;22.5;;;7.8;;
51515;SDS011;37603;55.614;37.326;2022-12-10T01:48:37;22.7;;;7.8;;
51515;SDS011;37603;55.614;37.326;2022-12-10T01:54:39;19.7;;;8.3;;
51515;SDS011;37603;55.614;37.326;2022-12-10T02:00:35;43.1;;;19.9;;
51515;SDS011;37603;55.614;37.326;2022-12-10T02:06:38;24.8;;;7.6;;
51515;SDS011;37603;55.614;37.326;2022-12-10T02:12:33;24.1;;;8.2;;
51515;SDS011;37603;55.614;37.326;2022-12-10T02:18:31;21.8;;;7.0;;
51515;SDS011;37603;55.614;37.326;2022-12-10T02:24:30;24.3;;;7.5;;
51515;SDS011;37603;55.614;37.326;2022-12-10T02:30:27;21.0;;;6.9;;
51515;SDS011;37603;55.614;37.326;2022-12-10T02:36:27;25.8;;;7.5;;
51515;SDS011;37603;55.614;37.326;2022-12-10T02:42:24;41.1;;;20.0;;
51515;SDS011;37603;55.614;37.326;2022-12-10T02:48:23;37.6;;;19.1;;
51515;SDS011;37603;55.614;37.326;2022-12-10T03:00:20;21.4;;;7.3;;
51515;SDS011;37603;55.614;37.326;2022-12-10T03:06:19;20.2;;;7.0;;
51515;SDS011;37603;55.614;37.326;2022-12-10T03:12:17;25.8;;;7.9;;
51515;SDS011;37603;55.614;37.326;2022-12-10T03:18:16;21.6;;;7.0;;
51515;SDS011;37603;55.614;37.326;2022-12-10T03:24:14;24.3;;;7.9;;
51515;SDS011;37603;55.614;37.326;2022-12-10T03:30:12;26.4;;;7.7;;
51515;SDS011;37603;55.614;37.326;2022-12-10T03:36:11;25.7;;;7.1;;
51515;SDS011;37603;55.614;37.326;2022-12-10T03:42:09;25.4;;;8.0;;
51515;SDS011;37603;55.614;37.326;2022-12-10T03:48:08;21.7;;;7.6;;
51515;SDS011;37603;55.614;37.326;2022-12-10T03:54:06;23.1;;;8.5;;
51515;SDS011;37603;55.614;37.326;2022-12-10T04:00:06;25.9;;;7.9;;
51515;SDS011;37603;55.614;37.326;2022-12-10T04:06:04;26.3;;;9.0;;
51515;SDS011;37603;55.614;37.326;2022-12-10T04:12:02;47.2;;;23.4;;
51515;SDS011;37603;55.614;37.326;2022-12-10T04:18:01;48.9;;;25.0;;
51515;SDS011;37603;55.614;37.326;2022-12-10T04:23:59;32.3;;;10.5;;
51515;SDS011;37603;55.614;37.326;2022-12-10T04:29:58;29.1;;;10.2;;
51515;SDS011;37603;55.614;37.326;2022-12-10T04:35:56;28.0;;;10.7;;
51515;SDS011;37603;55.614;37.326;2022-12-10T04:41:55;30.4;;;10.7;;
51515;SDS011;37603;55.614;37.326;2022-12-10T04:47:53;50.6;;;25.1;;
51515;SDS011;37603;55.614;37.326;2022-12-10T04:53:52;30.7;;;9.9;;
51515;SDS011;37603;55.614;37.326;2022-12-10T04:59:50;25.8;;;9.5;;
51515;SDS011;37603;55.614;37.326;2022-12-10T05:05:49;29.2;;;10.0;;
51515;SDS011;37603;55.614;37.326;2022-12-10T05:11:47;29.6;;;11.0;;
51515;SDS011;37603;55.614;37.326;2022-12-10T05:17:46;64.4;;;30.9;;
51515;SDS011;37603;55.614;37.326;2022-12-10T05:23:45;71.0;;;33.1;;
51515;SDS011;37603;55.614;37.326;2022-12-10T05:29:43;49.7;;;14.1;;
51515;SDS011;37603;55.614;37.326;2022-12-10T05:35:41;76.2;;;35.3;;
51515;SDS011;37603;55.614;37.326;2022-12-10T05:41:40;39.3;;;13.8;;
51515;SDS011;37603;55.614;37.326;2022-12-10T05:47:39;40.4;;;13.6;;
51515;SDS011;37603;55.614;37.326;2022-12-10T05:53:38;63.8;;;31.1;;
51515;SDS011;37603;55.614;37.326;2022-12-10T05:59:36;35.4;;;11.6;;
51515;SDS011;37603;55.614;37.326;2022-12-10T06:05:36;56.4;;;28.4;;
51515;SDS011;37603;55.614;37.326;2022-12-10T06:11:33;62.9;;;30.1;;
51515;SDS011;37603;55.614;37.326;2022-12-10T06:17:32;39.0;;;14.0;;
51515;SDS011;37603;55.614;37.326;2022-12-10T06:23:30;39.7;;;13.5;;
51515;SDS011;37603;55.614;37.326;2022-12-10T06:29:28;35.2;;;12.1;;
51515;SDS011;37603;55.614;37.326;2022-12-10T06:35:27;57.7;;;29.3;;
51515;SDS011;37603;55.614;37.326;2022-12-10T06:41:26;59.8;;;31.1;;
51515;SDS011;37603;55.614;37.326;2022-12-10T06:47:24;34.7;;;13.3;;
51515;SDS011;37603;55.614;37.326;2022-12-10T06:53:23;59.9;;;29.3;;
51515;SDS011;37603;55.614;37.326;2022-12-10T06:59:21;60.8;;;29.4;;
51515;SDS011;37603;55.614;37.326;2022-12-10T07:05:20;35.9;;;12.8;;
51515;SDS011;37603;55.614;37.326;2022-12-10T07:11:19;58.8;;;30.9;;
51515;SDS011;37603;55.614;37.326;2022-12-10T07:17:17;59.2;;;30.0;;
51515;SDS011;37603;55.614;37.326;2022-12-10T07:23:16;41.3;;;13.1;;
51515;SDS011;37603;55.614;37.326;2022-12-10T07:29:15;53.7;;;30.4;;
51515;SDS011;37603;55.614;37.326;2022-12-10T07:35:13;58.6;;;30.6;;
51515;SDS011;37603;55.614;37.326;2022-12-10T07:41:12;58.3;;;31.5;;
51515;SDS011;37603;55.614;37.326;2022-12-10T07:47:10;38.2;;;12.7;;
51515;SDS011;37603;55.614;37.326;2022-12-10T07:53:08;62.9;;;31.4;;
51515;SDS011;37603;55.614;37.326;2022-12-10T07:59:07;71.3;;;33.7;;
51515;SDS011;37603;55.614;37.326;2022-12-10T08:05:06;68.0;;;33.5;;
51515;SDS011;37603;55.614;37.326;2022-12-10T08:11:05;80.8;;;36.3;;
51515;SDS011;37603;55.614;37.326;2022-12-10T08:17:03;80.6;;;35.9;;
51515;SDS011;37603;55.614;37.326;2022-12-10T08:23:01;90.5;;;39.1;;
51515;SDS011;37603;55.614;37.326;2022-12-10T08:29:00;93.9;;;39.8;;
51515;SDS011;37603;55.614;37.326;2022-12-10T08:34:59;95.8;;;39.8;;
51515;SDS011;37603;55.614;37.326;2022-12-10T08:40:58;101.2;;;40.8;;
51515;SDS011;37603;55.614;37.326;2022-12-10T08:46:56;100.6;;;42.1;;
51515;SDS011;37603;55.614;37.326;2022-12-10T08:52:55;98.9;;;41.9;;
51515;SDS011;37603;55.614;37.326;2022-12-10T08:58:53;105.6;;;42.7;;
51515;SDS011;37603;55.614;37.326;2022-12-10T09:04:52;101.2;;;42.2;;
51515;SDS011;37603;55.614;37.326;2022-12-10T09:10:50;92.3;;;39.8;;
51515;SDS011;37603;55.614;37.326;2022-12-10T09:16:49;93.7;;;39.9;;
51515;SDS011;37603;55.614;37.326;2022-12-10T09:22:47;98.0;;;42.2;;
51515;SDS011;37603;55.614;37.326;2022-12-10T09:28:47;94.4;;;41.8;;
51515;SDS011;37603;55.614;37.326;2022-12-10T09:34:45;95.5;;;40.5;;
51515;SDS011;37603;55.614;37.326;2022-12-10T09:40:45;101.6;;;42.0;;
51515;SDS011;37603;55.614;37.326;2022-12-10T09:46:45;103.3;;;42.0;;
51515;SDS011;37603;55.614;37.326;2022-12-10T09:52:42;93.3;;;40.8;;
51515;SDS011;37603;55.614;37.326;2022-12-10T09:58:39;93.8;;;41.9;;
51515;SDS011;37603;55.614;37.326;2022-12-10T10:04:38;98.0;;;41.9;;
51515;SDS011;37603;55.614;37.326;2022-12-10T10:10:37;102.9;;;41.3;;
51515;SDS011;37603;55.614;37.326;2022-12-10T10:16:36;107.0;;;44.1;;
51515;SDS011;37603;55.614;37.326;2022-12-10T10:22:33;116.9;;;46.2;;
51515;SDS011;37603;55.614;37.326;2022-12-10T10:28:32;109.0;;;44.2;;
51515;SDS011;37603;55.614;37.326;2022-12-10T10:34:31;116.1;;;46.3;;
51515;SDS011;37603;55.614;37.326;2022-12-10T10:40:30;118.2;;;46.8;;
51515;SDS011;37603;55.614;37.326;2022-12-10T10:46:28;116.0;;;47.0;;
51515;SDS011;37603;55.614;37.326;2022-12-10T10:52:27;121.6;;;47.0;;
51515;SDS011;37603;55.614;37.326;2022-12-10T10:58:25;127.1;;;48.4;;
51515;SDS011;37603;55.614;37.326;2022-12-10T11:04:24;136.7;;;49.7;;
51515;SDS011;37603;55.614;37.326;2022-12-10T11:10:23;142.5;;;50.3;;
51515;SDS011;37603;55.614;37.326;2022-12-10T11:16:22;146.0;;;51.1;;
51515;SDS011;37603;55.614;37.326;2022-12-10T11:22:20;140.0;;;50.1;;
51515;SDS011;37603;55.614;37.326;2022-12-10T11:28:22;137.5;;;50.5;;
51515;SDS011;37603;55.614;37.326;2022-12-10T11:34:18;130.7;;;47.3;;
51515;SDS011;37603;55.614;37.326;2022-12-10T11:40:23;131.2;;;48.3;;
51515;SDS011;37603;55.614;37.326;2022-12-10T11:46:19;121.0;;;46.6;;
51515;SDS011;37603;55.614;37.326;2022-12-10T11:52:14;130.7;;;48.2;;
51515;SDS011;37603;55.614;37.326;2022-12-10T11:58:16;106.1;;;43.1;;
51515;SDS011;37603;55.614;37.326;2022-12-10T12:04:16;100.8;;;42.0;;
51515;SDS011;37603;55.614;37.326;2022-12-10T12:10:17;61.4;;;17.7;;
51515;SDS011;37603;55.614;37.326;2022-12-10T12:16:09;101.6;;;41.4;;
51515;SDS011;37603;55.614;37.326;2022-12-10T12:22:09;100.3;;;42.0;;
51515;SDS011;37603;55.614;37.326;2022-12-10T12:28:08;86.9;;;39.4;;
51515;SDS011;37603;55.614;37.326;2022-12-10T12:34:04;83.6;;;38.6;;
51515;SDS011;37603;55.614;37.326;2022-12-10T12:40:03;53.3;;;15.9;;
51515;SDS011;37603;55.614;37.326;2022-12-10T12:46:00;76.0;;;36.9;;
51515;SDS011;37603;55.614;37.326;2022-12-10T12:52:00;72.0;;;34.3;;
51515;SDS011;37603;55.614;37.326;2022-12-10T12:58:01;74.6;;;34.1;;
51515;SDS011;37603;55.614;37.326;2022-12-10T13:03:56;79.1;;;35.0;;
51515;SDS011;37603;55.614;37.326;2022-12-10T13:15:53;68.5;;;33.7;;
51515;SDS011;37603;55.614;37.326;2022-12-10T13:21:56;69.9;;;33.8;;
51515;SDS011;37603;55.614;37.326;2022-12-10T13:27:54;72.1;;;35.0;;
51515;SDS011;37603;55.614;37.326;2022-12-10T13:33:51;79.5;;;37.5;;
51515;SDS011;37603;55.614;37.326;2022-12-10T13:39:52;66.4;;;34.1;;
51515;SDS011;37603;55.614;37.326;2022-12-10T13:45:46;69.1;;;33.4;;
51515;SDS011;37603;55.614;37.326;2022-12-10T13:51:48;70.6;;;35.5;;
51515;SDS011;37603;55.614;37.326;2022-12-10T13:57:48;78.3;;;38.4;;
51515;SDS011;37603;55.614;37.326;2022-12-10T14:03:47;73.7;;;37.4;;
51515;SDS011;37603;55.614;37.326;2022-12-10T14:09:42;70.1;;;37.0;;
51515;SDS011;37603;55.614;37.326;2022-12-10T14:15:39;63.0;;;34.3;;
51515;SDS011;37603;55.614;37.326;2022-12-10T14:21:39;74.1;;;36.0;;
51515;SDS011;37603;55.614;37.326;2022-12-10T14:27:37;68.4;;;36.7;;
51515;SDS011;37603;55.614;37.326;2022-12-10T14:33:35;61.8;;;33.6;;
51515;SDS011;37603;55.614;37.326;2022-12-10T14:39:34;56.8;;;32.8;;
51515;SDS011;37603;55.614;37.326;2022-12-10T14:45:35;58.2;;;31.8;;
51515;SDS011;37603;55.614;37.326;2022-12-10T14:51:32;33.3;;;13.4;;
51515;SDS011;37603;55.614;37.326;2022-12-10T14:57:31;48.2;;;28.3;;
51515;SDS011;37603;55.614;37.326;2022-12-10T15:03:29;47.0;;;27.2;;
51515;SDS011;37603;55.614;37.326;2022-12-10T15:09:27;42.2;;;25.5;;
51515;SDS011;37603;55.614;37.326;2022-12-10T15:15:30;39.7;;;23.7;;
51515;SDS011;37603;55.614;37.326;2022-12-10T15:21:25;35.6;;;22.2;;
51515;SDS011;37603;55.614;37.326;2022-12-10T15:27:24;38.7;;;24.5;;
51515;SDS011;37603;55.614;37.326;2022-12-10T15:33:25;37.1;;;22.4;;
51515;SDS011;37603;55.614;37.326;2022-12-10T15:39:21;34.9;;;22.7;;
51515;SDS011;37603;55.614;37.326;2022-12-10T15:45:20;32.9;;;21.9;;
51515;SDS011;37603;55.614;37.326;2022-12-10T15:51:17;20.3;;;8.6;;
51515;SDS011;37603;55.614;37.326;2022-12-10T15:57:17;33.5;;;22.0;;
51515;SDS011;37603;55.614;37.326;2022-12-10T16:03:15;32.1;;;21.6;;
51515;SDS011;37603;55.614;37.326;2022-12-10T16:09:13;32.0;;;21.3;;
51515;SDS011;37603;55.614;37.326;2022-12-10T16:15:15;30.9;;;20.7;;
51515;SDS011;37603;55.614;37.326;2022-12-10T16:17:40;30.9;;;20.7;;
51515;SDS011;37603;55.614;37.326;2022-12-10T16:21:11;30.3;;;20.7;;
51515;SDS011;37603;55.614;37.326;2022-12-10T16:27:10;29.4;;;20.6;;
51515;SDS011;37603;55.614;37.326;2022-12-10T16:30:56;29.4;;;20.6;;
51515;SDS011;37603;55.614;37.326;2022-12-10T16:31:48;29.4;;;20.6;;
51515;SDS011;37603;55.614;37.326;2022-12-10T16:33:08;30.3;;;21.4;;
51515;SDS011;37603;55.614;37.326;2022-12-10T16:39:06;30.2;;;21.8;;
51515;SDS011;37603;55.614;37.326;2022-12-10T16:45:10;31.8;;;22.5;;
51515;SDS011;37603;55.614;37.326;2022-12-10T16:51:05;29.3;;;21.5;;
51515;SDS011;37603;55.614;37.326;2022-12-10T16:57:04;29.2;;;21.0;;
51515;SDS011;37603;55.614;37.326;2022-12-10T17:03:01;34.2;;;23.2;;
51515;SDS011;37603;55.614;37.326;2022-12-10T17:09:00;28.1;;;21.2;;
51515;SDS011;37603;55.614;37.326;2022-12-10T17:14:58;29.9;;;22.0;;
51515;SDS011;37603;55.614;37.326;2022-12-10T17:20:57;31.3;;;23.3;;
51515;SDS011;37603;55.614;37.326;2022-12-10T17:26:58;35.8;;;25.1;;
51515;SDS011;37603;55.614;37.326;2022-12-10T17:32:55;28.5;;;21.9;;
51515;SDS011;37603;55.614;37.326;2022-12-10T17:38:53;26.7;;;20.5;;
51515;SDS011;37603;55.614;37.326;2022-12-10T17:44:52;25.7;;;19.2;;
51515;SDS011;37603;55.614;37.326;2022-12-10T17:47:16;25.7;;;19.2;;
51515;SDS011;37603;55.614;37.326;2022-12-10T17:47:40;25.7;;;19.2;;
51515;SDS011;37603;55.614;37.326;2022-12-10T17:50:51;24.4;;;18.6;;
51515;SDS011;37603;55.614;37.326;2022-12-10T17:56:49;29.4;;;20.2;;
51515;SDS011;37603;55.614;37.326;2022-12-10T18:02:48;46.7;;;27.7;;
51515;SDS011;37603;55.614;37.326;2022-12-10T18:08:47;35.1;;;22.9;;
51515;SDS011;37603;55.614;37.326;2022-12-10T18:14:45;33.7;;;22.7;;
51515;SDS011;37603;55.614;37.326;2022-12-10T18:20:44;36.4;;;23.4;;
51515;SDS011;37603;55.614;37.326;2022-12-10T18:26:43;40.6;;;23.1;;
51515;SDS011;37603;55.614;37.326;2022-12-10T18:32:41;29.2;;;19.5;;
51515;SDS011;37603;55.614;37.326;2022-12-10T18:38:40;31.2;;;21.5;;
51515;SDS011;37603;55.614;37.326;2022-12-10T18:44:39;44.5;;;28.8;;
51515;SDS011;37603;55.614;37.326;2022-12-10T18:50:37;36.2;;;25.2;;
51515;SDS011;37603;55.614;37.326;2022-12-10T18:56:36;31.9;;;22.9;;
51515;SDS011;37603;55.614;37.326;2022-12-10T19:02:35;30.5;;;21.5;;
51515;SDS011;37603;55.614;37.326;2022-12-10T19:05:24;30.5;;;21.5;;
51515;SDS011;37603;55.614;37.326;2022-12-10T19:06:39;30.5;;;21.5;;
51515;SDS011;37603;55.614;37.326;2022-12-10T19:08:33;24.9;;;18.2;;
51515;SDS011;37603;55.614;37.326;2022-12-10T19:14:32;21.2;;;15.4;;
51515;SDS011;37603;55.614;37.326;2022-12-10T19:20:31;17.8;;;14.0;;
51515;SDS011;37603;55.614;37.326;2022-12-10T19:26:31;15.9;;;12.8;;
51515;SDS011;37603;55.614;37.326;2022-12-10T19:32:28;13.3;;;11.3;;
51515;SDS011;37603;55.614;37.326;2022-12-10T19:35:24;13.3;;;11.3;;
51515;SDS011;37603;55.614;37.326;2022-12-10T19:38:27;15.1;;;11.6;;
51515;SDS011;37603;55.614;37.326;2022-12-10T19:50:25;14.3;;;11.5;;
51515;SDS011;37603;55.614;37.326;2022-12-10T19:56:27;13.0;;;11.1;;
51515;SDS011;37603;55.614;37.326;2022-12-10T20:02:22;12.5;;;10.2;;
51515;SDS011;37603;55.614;37.326;2022-12-10T20:08:20;11.9;;;10.2;;
51515;SDS011;37603;55.614;37.326;2022-12-10T20:14:19;11.5;;;10.3;;
51515;SDS011;37603;55.614;37.326;2022-12-10T20:20:19;10.8;;;9.7;;
51515;SDS011;37603;55.614;37.326;2022-12-10T20:26:17;10.9;;;9.3;;
51515;SDS011;37603;55.614;37.326;2022-12-10T20:32:15;12.0;;;9.7;;
51515;SDS011;37603;55.614;37.326;2022-12-10T20:38:14;11.5;;;10.0;;
51515;SDS011;37603;55.614;37.326;2022-12-10T20:44:12;9.7;;;8.7;;
51515;SDS011;37603;55.614;37.326;2022-12-10T20:50:11;11.3;;;9.1;;
51515;SDS011;37603;55.614;37.326;2022-12-10T20:56:10;12.3;;;9.8;;
51515;SDS011;37603;55.614;37.326;2022-12-10T21:02:09;17.2;;;14.5;;
51515;SDS011;37603;55.614;37.326;2022-12-10T21:08:08;15.1;;;12.9;;
51515;SDS011;37603;55.614;37.326;2022-12-10T21:14:06;14.7;;;11.6;;
51515;SDS011;37603;55.614;37.326;2022-12-10T21:20:05;11.0;;;9.5;;
51515;SDS011;37603;55.614;37.326;2022-12-10T21:26:03;11.3;;;9.2;;
51515;SDS011;37603;55.614;37.326;2022-12-10T21:32:02;10.3;;;9.0;;
51515;SDS011;37603;55.614;37.326;2022-12-10T21:38:01;9.1;;;7.7;;
51515;SDS011;37603;55.614;37.326;2022-12-10T21:43:59;8.9;;;8.0;;
51515;SDS011;37603;55.614;37.326;2022-12-10T21:49:58;10.3;;;8.2;;
51515;SDS011;37603;55.614;37.326;2022-12-10T21:56:03;11.3;;;8.5;;
51515;SDS011;37603;55.614;37.326;2022-12-10T22:01:55;12.8;;;9.2;;
51515;SDS011;37603;55.614;37.326;2022-12-10T22:07:54;12.6;;;9.3;;
51515;SDS011;37603;55.614;37.326;2022-12-10T22:13:53;13.7;;;9.6;;
51515;SDS011;37603;55.614;37.326;2022-12-10T22:25:50;12.9;;;9.7;;
51515;SDS011;37603;55.614;37.326;2022-12-10T22:31:49;11.8;;;9.9;;
51515;SDS011;37603;55.614;37.326;2022-12-10T22:37:49;15.0;;;11.0;;
51515;SDS011;37603;55.614;37.326;2022-12-10T22:43:47;12.8;;;9.9;;
51515;SDS011;37603;55.614;37.326;2022-12-10T22:49:45;13.0;;;10.2;;
51515;SDS011;37603;55.614;37.326;2022-12-10T22:55:44;19.3;;;12.6;;
51515;SDS011;37603;55.614;37.326;2022-12-10T23:01:43;16.2;;;10.9;;
51515;SDS011;37603;55.614;37.326;2022-12-10T23:07:41;13.8;;;9.6;;
51515;SDS011;37603;55.614;37.326;2022-12-10T23:13:40;11.2;;;8.8;;
51515;SDS011;37603;55.614;37.326;2022-12-10T23:19:39;13.1;;;9.5;;
51515;SDS011;37603;55.614;37.326;2022-12-10T23:25:38;14.5;;;10.0;;
51515;SDS011;37603;55.614;37.326;2022-12-10T23:31:36;12.9;;;9.9;;
51515;SDS011;37603;55.614;37.326;2022-12-10T23:37:35;15.6;;;11.2;;
51515;SDS011;37603;55.614;37.326;2022-12-10T23:43:34;15.5;;;10.9;;
51515;SDS011;37603;55.614;37.326;2022-12-10T23:49:32;15.3;;;11.0;;
51515;SDS011;37603;55.614;37.326;2022-12-10T23:55:31;16.8;;;10.8;;
